Time;durP1;ratioP1;P1;durP2;ratioP2;P2;SDS_P1;SDS_P2;PMS_P1;PMS_P2;Temp;Humidity;BMP_temperature;BMP_pressure;BME280_temperature;BME280_humidity;BME280_pressure;Samples;Min_cycle;Max_cycle;Signal;HPM_P1;HPM_P2
2023/07/03 00:01:02;;;;;;;20.92;6.93;;;;;;;14.61;72.26;100868.47;5052761;28;20083;-44
2023/07/03 00:03:28;;;;;;;26.95;6.75;;;;;;;14.58;72.57;100873.63;5052070;28;20499;-43
2023/07/03 00:05:54;;;;;;;29.52;7.20;;;;;;;14.57;72.81;100871.88;5052708;28;20384;-44
2023/07/03 00:08:19;;;;;;;30.20;7.97;;;;;;;14.57;73.09;100866.69;5052149;28;20032;-47
2023/07/03 00:10:44;;;;;;;29.63;7.18;;;;;;;14.56;73.00;100864.09;5052175;28;20029;-47
2023/07/03 00:13:10;;;;;;;30.48;7.38;;;;;;;14.53;73.23;100864.06;5052446;28;20025;-46
2023/07/03 00:15:36;;;;;;;24.35;6.85;;;;;;;14.51;73.31;100861.41;5051661;28;20032;-46
2023/07/03 00:18:02;;;;;;;22.08;6.75;;;;;;;14.46;73.57;100861.38;5052525;28;20020;-47
2023/07/03 00:20:30;;;;;;;23.70;7.15;;;;;;;14.44;73.67;100860.47;5051899;28;20032;-47
2023/07/03 00:22:55;;;;;;;26.48;6.78;;;;;;;14.44;73.89;100855.28;5051789;28;20097;-45
2023/07/03 00:25:21;;;;;;;27.33;7.30;;;;;;;14.42;73.84;100857.00;5052084;28;20025;-44
2023/07/03 00:27:47;;;;;;;33.70;7.88;;;;;;;14.39;73.95;100856.94;5052288;28;20026;-47
2023/07/03 00:30:13;;;;;;;29.30;7.35;;;;;;;14.37;74.24;100853.47;5051959;28;20096;-48
2023/07/03 00:32:40;;;;;;;;;;;;;;;14.45;73.88;100862.22;5052309;28;20107;-46
2023/07/03 00:35:06;;;;;;;28.67;6.80;;;;;;;14.36;74.78;100846.53;5052475;28;19912;-45
2023/07/03 00:37:32;;;;;;;27.27;6.95;;;;;;;14.33;74.82;100846.47;5051412;28;20325;-48
2023/07/03 00:39:58;;;;;;;34.53;8.60;;;;;;;14.32;75.22;100844.75;5053589;28;20021;-46
2023/07/03 00:42:24;;;;;;;23.95;6.32;;;;;;;14.31;75.23;100854.22;5055843;28;20039;-45
2023/07/03 00:44:50;;;;;;;29.67;7.55;;;;;;;14.33;75.84;100859.44;5055687;28;20086;-44
2023/07/03 00:47:15;;;;;;;24.73;6.82;;;;;;;14.30;75.90;100859.41;5055758;28;20029;-48
2023/07/03 00:49:41;;;;;;;28.63;7.35;;;;;;;14.30;76.33;100851.63;5055738;28;20025;-46
2023/07/03 00:52:08;;;;;;;28.08;6.80;;;;;;;14.33;76.66;100857.72;5055385;28;20450;-48
2023/07/03 00:54:34;;;;;;;29.35;7.70;;;;;;;14.30;76.41;100851.63;5055337;28;20029;-46
2023/07/03 00:56:59;;;;;;;29.95;7.53;;;;;;;14.28;76.77;100845.53;5055946;28;20465;-46
2023/07/03 00:59:25;;;;;;;37.38;7.63;;;;;;;14.32;77.16;100847.34;5054973;28;20075;-46
2023/07/03 01:02:09;;;;;;;30.88;7.80;;;;;;;14.28;77.49;100843.84;5055458;28;20032;-45
2023/07/03 01:04:39;;;;;;;30.77;7.47;;;;;;;14.26;77.63;100842.94;5054959;28;20388;-43
2023/07/03 01:07:09;;;;;;;34.60;7.78;;;;;;;14.26;77.95;100844.66;5055853;28;20025;-47
2023/07/03 01:09:44;;;;;;;32.28;6.78;;;;;;;14.25;78.21;100840.31;5055559;28;20078;-46
2023/07/03 01:12:10;;;;;;;29.05;6.55;;;;;;;14.25;78.15;100845.50;5055577;28;20094;-45
2023/07/03 01:14:38;;;;;;;31.05;7.40;;;;;;;14.22;78.12;100840.28;5055123;28;20036;-45
2023/07/03 01:17:09;;;;;;;28.98;7.13;;;;;;;14.20;78.47;100836.78;5055496;28;20029;-46
2023/07/03 01:19:37;;;;;;;37.42;7.90;;;;;;;14.19;79.00;100837.63;5054886;28;20021;-44
2023/07/03 01:22:22;;;;;;;29.02;7.32;;;;;;;14.20;78.99;100847.16;5055070;28;20049;-45
2023/07/03 01:24:51;;;;;;;33.63;7.95;;;;;;;14.15;79.36;100842.78;5055175;28;20547;-47
2023/07/03 01:27:20;;;;;;;38.38;7.85;;;;;;;14.16;79.69;100854.91;5054729;28;20029;-47
2023/07/03 01:29:50;;;;;;;35.13;8.13;;;;;;;14.14;79.98;100848.81;5054711;28;20025;-47
2023/07/03 01:32:21;;;;;;;32.65;8.27;;;;;;;14.12;80.28;100842.72;5055162;28;20029;-46
2023/07/03 01:34:49;;;;;;;27.80;8.05;;;;;;;14.14;80.41;100851.41;5054498;28;20025;-45
2023/07/03 01:37:17;;;;;;;30.95;7.80;;;;;;;14.13;80.61;100846.19;5055017;28;20074;-46
2023/07/03 01:39:43;;;;;;;;;;;;;;;14.19;80.21;100843.72;5054568;28;20040;-46
2023/07/03 01:42:10;;;;;;;29.98;7.18;;;;;;;14.12;81.02;100831.50;5054986;28;19921;-44
2023/07/03 01:44:36;;;;;;;33.97;7.72;;;;;;;14.09;81.57;100841.81;5054609;28;20025;-45
2023/07/03 01:47:11;;;;;;;33.30;8.02;;;;;;;14.07;81.84;100844.41;5054570;28;20025;-47
2023/07/03 01:49:36;;;;;;;35.45;7.55;;;;;;;14.02;82.16;100830.50;5054530;28;20021;-48
2023/07/03 01:52:19;;;;;;;35.75;8.02;;;;;;;14.04;82.75;100843.47;5053638;28;20043;-45
2023/07/03 01:54:55;;;;;;;43.40;8.73;;;;;;;14.01;83.09;100839.13;5054033;28;20104;-47
2023/07/03 01:57:32;;;;;;;34.50;8.20;;;;;;;14.00;83.42;100837.38;5054618;28;20036;-47
2023/07/03 02:00:00;;;;;;;35.92;7.88;;;;;;;13.98;83.73;100833.88;5054927;28;20017;-44
2023/07/03 02:02:29;;;;;;;39.03;8.02;;;;;;;13.98;84.17;100839.06;5053717;28;20112;-45
2023/07/03 02:05:12;;;;;;;30.77;7.47;;;;;;;13.96;83.96;100836.44;5054482;28;20045;-48
2023/07/03 02:07:40;;;;;;;39.72;8.43;;;;;;;13.93;85.45;100831.22;5054440;28;20029;-46
2023/07/03 02:10:06;;;;;;;38.45;7.93;;;;;;;13.94;85.52;100832.09;5054577;28;20017;-46
2023/07/03 02:12:31;;;;;;;35.38;7.72;;;;;;;13.93;85.84;100826.03;5053934;28;20385;-46
2023/07/03 02:15:01;;;;;;;39.17;8.68;;;;;;;13.92;86.02;100828.63;5053948;28;20032;-47
2023/07/03 02:17:26;;;;;;;39.47;8.23;;;;;;;13.91;87.03;100827.72;5053951;28;20029;-45
2023/07/03 02:19:52;;;;;;;43.67;8.73;;;;;;;13.88;86.61;100831.97;5054209;28;20492;-47
2023/07/03 02:22:17;;;;;;;36.30;7.78;;;;;;;13.89;87.16;100833.72;5053724;28;20048;-47
2023/07/03 02:24:42;;;;;;;35.38;8.27;;;;;;;13.84;87.60;100828.50;5053879;28;20112;-46
2023/07/03 02:27:08;;;;;;;43.33;9.98;;;;;;;13.82;88.06;100827.59;5054295;28;20377;-50
2023/07/03 02:29:33;;;;;;;38.28;7.85;;;;;;;13.76;88.38;100825.78;5053246;28;20461;-48
2023/07/03 02:31:58;;;;;;;47.05;9.25;;;;;;;13.71;89.08;100817.06;5053884;28;20480;-47
2023/07/03 02:34:24;;;;;;;51.38;10.13;;;;;;;13.68;89.81;100816.16;5053475;28;20053;-48
2023/07/03 02:36:49;;;;;;;35.70;8.88;;;;;;;13.64;90.45;100822.97;5053517;28;20480;-48
2023/07/03 02:39:14;;;;;;;43.90;9.02;;;;;;;13.59;90.85;100819.44;5053677;28;20021;-47
2023/07/03 02:41:40;;;;;;;45.58;9.15;;;;;;;13.52;91.57;100822.75;5053277;28;20036;-43
2023/07/03 02:44:05;;;;;;;45.63;10.23;;;;;;;13.47;91.99;100810.63;5053199;28;20078;-46
2023/07/03 02:46:30;;;;;;;43.15;9.88;;;;;;;13.38;92.67;100807.88;5053254;28;20021;-46
2023/07/03 02:48:56;;;;;;;45.25;10.15;;;;;;;13.36;93.66;100809.53;5053678;28;20036;-47
2023/07/03 02:51:21;;;;;;;42.20;9.77;;;;;;;13.25;93.60;100811.06;5053289;28;20028;-43
2023/07/03 02:53:47;;;;;;;51.03;9.75;;;;;;;13.20;94.27;100810.97;5053279;28;20354;-45
2023/07/03 02:56:13;;;;;;;43.15;9.80;;;;;;;13.12;95.38;100803.06;5053575;28;20151;-47
2023/07/03 02:58:38;;;;;;;51.13;9.90;;;;;;;13.08;95.98;100806.44;5052691;28;20104;-43
2023/07/03 03:01:04;;;;;;;50.20;10.98;;;;;;;13.01;96.34;100809.75;5053082;28;20032;-46
2023/07/03 03:03:30;;;;;;;48.83;10.50;;;;;;;12.96;96.79;100807.09;5052607;28;20495;-47
2023/07/03 03:05:55;;;;;;;47.47;9.43;;;;;;;12.92;97.26;100804.41;5052715;28;20107;-48
2023/07/03 03:08:22;;;;;;;45.70;9.32;;;;;;;12.85;97.80;100801.69;5053295;28;20028;-43
2023/07/03 03:10:48;;;;;;;57.40;10.02;;;;;;;12.80;98.71;100798.16;5053169;28;20027;-47
2023/07/03 03:13:13;;;;;;;58.30;10.88;;;;;;;12.76;99.65;100801.53;5052681;28;20032;-47
2023/07/03 03:15:38;;;;;;;57.35;11.27;;;;;;;12.74;99.85;100795.44;5052554;28;20025;-47
2023/07/03 03:18:04;;;;;;;52.10;10.55;;;;;;;12.74;100.00;100794.56;5052470;28;20083;-46
2023/07/03 03:20:29;;;;;;;50.72;9.52;;;;;;;12.76;100.00;100798.94;5052818;28;20045;-43
2023/07/03 03:22:55;;;;;;;47.58;10.38;;;;;;;12.79;100.00;100801.56;5052842;28;20389;-46
2023/07/03 03:25:20;;;;;;;58.35;11.73;;;;;;;12.81;100.00;100797.31;5052492;28;20059;-45
2023/07/03 03:27:45;;;;;;;53.85;11.95;;;;;;;12.85;100.00;100793.09;5052442;28;20483;-43
2023/07/03 03:30:11;;;;;;;50.88;11.65;;;;;;;12.84;100.00;100794.78;5052977;28;20087;-47
2023/07/03 03:32:37;;;;;;;52.03;10.77;;;;;;;12.87;100.00;100793.09;5052221;28;20395;-46
2023/07/03 03:35:02;;;;;;;50.75;11.10;;;;;;;12.87;100.00;100791.38;5052519;28;20017;-43
2023/07/03 03:37:27;;;;;;;56.80;11.27;;;;;;;12.83;100.00;100798.22;5052730;28;20025;-46
2023/07/03 03:39:53;;;;;;;60.72;12.40;;;;;;;12.82;100.00;100801.66;5052163;28;20029;-47
2023/07/03 03:42:18;;;;;;;57.35;12.15;;;;;;;12.81;100.00;100796.44;5052585;28;20040;-46
2023/07/03 03:44:44;;;;;;;74.00;12.90;;;;;;;12.80;100.00;100798.16;5052505;28;20099;-42
2023/07/03 03:47:09;;;;;;;67.70;12.25;;;;;;;12.75;100.00;100792.00;5052296;28;20426;-44
2023/07/03 03:49:34;;;;;;;64.07;11.57;;;;;;;12.70;100.00;100798.81;5051989;28;20339;-45
2023/07/03 03:52:00;;;;;;;54.17;11.10;;;;;;;12.65;100.00;100797.84;5052622;28;20024;-43
2023/07/03 03:54:28;;;;;;;68.88;12.75;;;;;;;12.63;100.00;100799.53;5051772;28;20029;-44
2023/07/03 03:56:53;;;;;;;62.95;12.88;;;;;;;12.63;100.00;100796.97;5052381;28;20025;-47
2023/07/03 03:59:21;;;;;;;84.32;14.43;;;;;;;12.60;100.00;100804.63;5052613;28;20044;-46
2023/07/03 04:01:46;;;;;;;;;;;;;;;12.68;100.00;100816.03;5051938;28;20481;-44
2023/07/03 04:04:12;;;;;;;69.67;12.90;;;;;;;12.57;100.00;100804.59;5052140;28;19919;-43
2023/07/03 04:06:38;;;;;;;69.57;14.10;;;;;;;12.56;100.00;100805.41;5052229;28;20786;-43
2023/07/03 04:09:04;;;;;;;77.35;14.02;;;;;;;12.53;100.00;100801.06;5052029;28;20021;-42
2023/07/03 04:11:30;;;;;;;68.18;13.77;;;;;;;12.50;100.00;100799.28;5051849;28;20481;-44
2023/07/03 04:13:56;;;;;;;79.82;14.82;;;;;;;12.55;100.00;100808.84;5052138;28;20017;-46
2023/07/03 04:16:23;;;;;;;86.53;14.65;;;;;;;12.55;100.00;100803.66;5055676;28;20028;-44
2023/07/03 04:18:48;;;;;;;75.32;14.32;;;;;;;12.59;100.00;100802.88;5056572;28;20032;-43
2023/07/03 04:21:13;;;;;;;79.57;15.57;;;;;;;12.63;100.00;100808.16;5056559;28;20133;-46
2023/07/03 04:23:39;;;;;;;74.70;14.82;;;;;;;12.72;100.00;100802.31;5055288;28;20067;-43
2023/07/03 04:26:04;;;;;;;85.20;15.60;;;;;;;12.81;100.00;100806.81;5056502;28;20108;-43
2023/07/03 04:28:29;;;;;;;85.25;15.50;;;;;;;12.87;100.00;100795.69;5055496;28;20033;-47
2023/07/03 04:30:55;;;;;;;73.95;15.93;;;;;;;12.92;100.00;100802.69;5056031;28;20104;-43
2023/07/03 04:33:20;;;;;;;86.15;15.77;;;;;;;12.97;100.00;100802.78;5056178;28;20021;-42
2023/07/03 04:35:47;;;;;;;87.15;15.40;;;;;;;13.02;100.00;100803.75;5055482;28;20068;-46
2023/07/03 04:38:14;;;;;;;86.65;15.75;;;;;;;13.03;100.00;100805.50;5056045;28;20025;-48
2023/07/03 04:40:39;;;;;;;88.13;15.48;;;;;;;13.08;100.00;100801.28;5055837;28;20087;-46
2023/07/03 04:43:07;;;;;;;90.50;14.80;;;;;;;13.13;100.00;100815.16;5055576;28;20071;-46
2023/07/03 04:45:40;;;;;;;86.97;15.55;;;;;;;13.16;100.00;100819.53;5055389;28;20025;-42
2023/07/03 04:48:06;;;;;;;76.68;14.18;;;;;;;13.18;100.00;100818.72;5056253;28;20040;-47
2023/07/03 04:50:31;;;;;;;77.97;15.10;;;;;;;13.23;100.00;100820.50;5055024;28;20024;-47
2023/07/03 04:52:56;;;;;;;84.22;16.05;;;;;;;13.23;100.00;100828.28;5055596;28;20052;-47
2023/07/03 04:55:22;;;;;;;79.50;15.77;;;;;;;13.26;100.00;100825.72;5056028;28;20020;-44
2023/07/03 04:57:47;;;;;;;84.60;14.93;;;;;;;13.26;100.00;100834.38;5055339;28;20039;-45
2023/07/03 05:00:16;;;;;;;97.72;16.98;;;;;;;13.28;100.00;100834.41;5055484;28;20100;-46
2023/07/03 05:02:47;;;;;;;79.07;14.85;;;;;;;13.30;100.00;100838.78;5055352;28;20107;-48
2023/07/03 05:05:14;;;;;;;75.22;15.48;;;;;;;13.33;100.00;100848.31;5055233;28;20104;-42
2023/07/03 05:07:41;;;;;;;79.22;13.90;;;;;;;13.32;100.00;100843.97;5055332;28;20029;-41
2023/07/03 05:10:09;;;;;;;80.87;14.03;;;;;;;13.31;100.00;100834.44;5055799;28;20116;-44
2023/07/03 05:12:35;;;;;;;81.85;15.20;;;;;;;13.31;100.00;100839.63;5054753;28;20082;-44
2023/07/03 05:15:02;;;;;;;86.43;15.38;;;;;;;13.35;100.00;100838.88;5055423;28;20028;-48
2023/07/03 05:17:27;;;;;;;83.82;15.45;;;;;;;13.40;100.00;100844.13;5055244;28;20470;-43
2023/07/03 05:19:53;;;;;;;66.68;14.00;;;;;;;13.44;100.00;100844.22;5054813;28;20051;-46
2023/07/03 05:22:18;;;;;;;80.13;15.35;;;;;;;13.45;100.00;100848.56;5055213;28;20094;-46
2023/07/03 05:24:43;;;;;;;83.82;13.85;;;;;;;13.47;100.00;100843.41;5054750;28;20032;-43
2023/07/03 05:27:09;;;;;;;73.75;13.50;;;;;;;13.43;100.00;100850.25;5054739;28;20107;-47
2023/07/03 05:29:34;;;;;;;74.95;14.68;;;;;;;13.40;100.00;100855.38;5054925;28;20043;-42
2023/07/03 05:32:00;;;;;;;72.90;14.43;;;;;;;13.47;100.00;100856.38;5054687;28;20455;-45
2023/07/03 05:34:26;;;;;;;77.65;15.18;;;;;;;13.57;100.00;100858.28;5054723;28;20025;-44
2023/07/03 05:36:53;;;;;;;72.63;13.88;;;;;;;13.76;100.00;100850.81;5055236;28;20075;-44
2023/07/03 05:39:18;;;;;;;68.15;13.38;;;;;;;13.92;100.00;100855.38;5054696;28;20103;-43
2023/07/03 05:41:43;;;;;;;67.90;13.23;;;;;;;14.06;100.00;100863.38;5054482;28;20188;-47
2023/07/03 05:44:09;;;;;;;62.08;13.73;;;;;;;14.15;100.00;100862.63;5054917;28;20375;-43
2023/07/03 05:46:34;;;;;;;64.18;13.48;;;;;;;14.17;100.00;100863.53;5054366;28;20021;-43
2023/07/03 05:48:59;;;;;;;57.45;12.40;;;;;;;14.20;100.00;100863.56;5054775;28;20024;-43
2023/07/03 05:51:24;;;;;;;56.58;11.45;;;;;;;14.23;100.00;100865.34;5054710;28;20111;-44
2023/07/03 05:53:50;;;;;;;52.72;13.00;;;;;;;14.25;100.00;100868.84;5054370;28;20527;-46
2023/07/03 05:56:15;;;;;;;52.92;11.45;;;;;;;14.25;100.00;100866.25;5054582;28;20444;-46
2023/07/03 05:58:40;;;;;;;56.83;12.45;;;;;;;14.26;100.00;100881.81;5054401;28;20027;-46
2023/07/03 06:01:06;;;;;;;68.32;12.82;;;;;;;14.28;100.00;100884.41;5054264;28;20050;-43
2023/07/03 06:03:31;;;;;;;60.20;12.65;;;;;;;14.25;100.00;100874.03;5054030;28;20079;-48
2023/07/03 06:05:57;;;;;;;56.40;12.48;;;;;;;14.28;100.00;100874.06;5054714;28;20021;-47
2023/07/03 06:08:23;;;;;;;51.53;12.45;;;;;;;14.31;100.00;100874.13;5053837;28;20025;-43
2023/07/03 06:10:48;;;;;;;50.35;11.82;;;;;;;14.33;100.00;100872.41;5054412;28;20527;-44
2023/07/03 06:13:14;;;;;;;59.92;12.15;;;;;;;14.33;100.00;100877.59;5054364;28;20045;-46
2023/07/03 06:15:40;;;;;;;50.45;12.18;;;;;;;14.34;100.00;100879.34;5053595;28;20066;-46
2023/07/03 06:18:05;;;;;;;47.13;11.70;;;;;;;14.39;100.00;100882.88;5054362;28;20024;-44
2023/07/03 06:20:31;;;;;;;55.10;12.02;;;;;;;14.40;100.00;100879.44;5054230;28;20143;-43
2023/07/03 06:22:56;;;;;;;49.97;11.15;;;;;;;14.45;100.00;100882.97;5053530;28;20409;-43
2023/07/03 06:25:22;;;;;;;60.22;11.57;;;;;;;14.41;100.00;100880.28;5054225;28;20104;-43
2023/07/03 06:27:48;;;;;;;47.60;10.40;;;;;;;14.37;100.00;100879.41;5054275;28;20464;-42
2023/07/03 06:30:13;;;;;;;53.33;10.63;;;;;;;14.40;100.00;100881.16;5053431;28;20041;-46
2023/07/03 06:32:39;;;;;;;41.95;11.20;;;;;;;14.45;100.00;100882.97;5053836;28;20536;-44
2023/07/03 06:35:05;;;;;;;44.95;10.82;;;;;;;14.55;100.00;100872.72;5053781;28;20029;-42
2023/07/03 06:37:30;;;;;;;46.40;11.00;;;;;;;14.68;99.95;100879.84;5052949;28;20035;-42
2023/07/03 06:39:56;;;;;;;42.42;10.30;;;;;;;14.76;99.43;100875.63;5053984;28;20028;-43
2023/07/03 06:42:21;;;;;;;41.13;9.38;;;;;;;14.89;98.04;100883.56;5053484;28;20029;-47
2023/07/03 06:44:46;;;;;;;39.30;10.18;;;;;;;14.93;97.00;100878.44;5053737;28;20118;-42
2023/07/03 06:47:12;;;;;;;48.83;11.50;;;;;;;15.05;96.72;100875.09;5054125;28;20090;-44
2023/07/03 06:49:37;;;;;;;35.05;9.10;;;;;;;15.17;96.29;100874.38;5053216;28;20384;-45
2023/07/03 06:52:03;;;;;;;38.92;9.73;;;;;;;15.19;95.75;100877.84;5053542;28;20021;-44
2023/07/03 06:54:28;;;;;;;36.25;9.45;;;;;;;15.24;94.85;100873.59;5053456;28;20029;-41
2023/07/03 06:56:53;;;;;;;42.67;9.13;;;;;;;15.14;93.31;100867.44;5053183;28;20021;-42
2023/07/03 06:59:19;;;;;;;38.08;9.02;;;;;;;15.18;94.58;100876.09;5053420;28;20049;-45
2023/07/03 07:01:44;;;;;;;42.47;9.02;;;;;;;15.23;94.78;100865.78;5053150;28;20032;-44
2023/07/03 07:04:10;;;;;;;36.22;8.40;;;;;;;15.29;93.73;100873.66;5053151;28;20033;-46
2023/07/03 07:06:38;;;;;;;47.15;9.57;;;;;;;15.35;92.15;100876.31;5053053;28;20025;-46
2023/07/03 07:09:04;;;;;;;36.47;7.90;;;;;;;15.43;90.99;100873.78;5053480;28;20083;-46
2023/07/03 07:11:33;;;;;;;35.78;8.18;;;;;;;15.42;90.89;100887.63;5052562;28;20516;-43
2023/07/03 07:14:00;;;;;;;35.95;8.63;;;;;;;15.41;91.51;100899.72;5053096;28;20518;-43
2023/07/03 07:16:31;;;;;;;38.08;8.85;;;;;;;15.57;91.99;100899.88;5053349;28;20048;-43
2023/07/03 07:19:00;;;;;;;33.92;8.23;;;;;;;15.54;90.45;100895.53;5052956;28;20021;-42
2023/07/03 07:21:26;;;;;;;28.58;8.15;;;;;;;15.64;90.02;100896.50;5052766;28;20139;-46
2023/07/03 07:23:54;;;;;;;39.33;9.30;;;;;;;15.60;89.52;100899.94;5053037;28;20128;-47
2023/07/03 07:26:20;;;;;;;37.08;7.97;;;;;;;15.69;90.22;100905.22;5052312;28;20465;-46
2023/07/03 07:28:46;;;;;;;34.17;7.53;;;;;;;15.66;88.89;100893.91;5052789;28;20484;-47
2023/07/03 07:31:23;;;;;;;31.52;8.38;;;;;;;15.71;88.90;100885.31;5052921;28;20025;-43
2023/07/03 07:33:49;;;;;;;30.70;8.07;;;;;;;15.71;87.42;100890.53;5052785;28;20393;-42
2023/07/03 07:36:15;;;;;;;35.70;8.32;;;;;;;15.84;87.05;100888.03;5053004;28;20473;-43
2023/07/03 07:38:41;;;;;;;35.28;8.75;;;;;;;15.85;85.45;100889.78;5052086;28;20025;-47
2023/07/03 07:41:07;;;;;;;30.55;7.75;;;;;;;16.01;84.46;100894.25;5052815;28;20029;-47
2023/07/03 07:43:32;;;;;;;30.38;7.85;;;;;;;16.26;84.62;100891.84;5052804;28;20460;-47
2023/07/03 07:45:58;;;;;;;32.78;8.68;;;;;;;16.52;82.78;100896.34;5052458;28;20028;-46
2023/07/03 07:48:23;;;;;;;33.95;8.18;;;;;;;16.95;80.36;100896.56;5052345;28;20067;-42
2023/07/03 07:50:49;;;;;;;34.58;7.78;;;;;;;17.30;79.08;100888.03;5052804;28;20057;-46
2023/07/03 07:53:14;;;;;;;33.90;8.30;;;;;;;17.25;76.74;100895.81;5052127;28;20385;-41
2023/07/03 07:55:40;;;;;;;31.02;7.05;;;;;;;17.26;75.08;100886.25;5052448;28;20047;-42
2023/07/03 07:58:05;;;;;;;29.23;6.97;;;;;;;17.18;76.43;100895.78;5052873;28;20025;-45
2023/07/03 08:00:30;;;;;;;28.05;6.47;;;;;;;17.23;76.81;100904.50;5051882;28;20434;-45
2023/07/03 08:02:56;;;;;;;27.02;7.88;;;;;;;17.21;75.41;100901.00;5052573;28;20445;-41
2023/07/03 08:05:21;;;;;;;32.47;6.93;;;;;;;17.10;74.08;100903.56;5052582;28;20021;-41
2023/07/03 08:07:48;;;;;;;31.67;7.00;;;;;;;16.97;73.93;100907.00;5051704;28;20031;-41
2023/07/03 08:10:14;;;;;;;31.02;6.78;;;;;;;16.85;73.69;100910.38;5052559;28;20025;-44
2023/07/03 08:12:40;;;;;;;31.67;6.85;;;;;;;16.83;73.29;100905.16;5052335;28;20036;-46
2023/07/03 08:15:08;;;;;;;25.63;6.63;;;;;;;16.73;73.43;100906.88;5052172;28;20029;-42
2023/07/03 08:17:33;;;;;;;27.90;7.15;;;;;;;16.88;74.53;100908.66;5052244;28;20158;-47
2023/07/03 08:19:59;;;;;;;27.92;6.32;;;;;;;16.96;73.38;100906.13;5052523;28;20100;-42
2023/07/03 08:22:24;;;;;;;30.20;6.13;;;;;;;17.08;74.45;100916.59;5051169;28;20073;-45
2023/07/03 08:24:50;;;;;;;25.67;5.97;;;;;;;17.14;73.91;100913.13;5052698;28;20397;-41
2023/07/03 08:27:15;;;;;;;25.77;6.03;;;;;;;17.45;74.91;100913.22;5052598;28;20154;-43
2023/07/03 08:29:40;;;;;;;30.38;6.38;;;;;;;17.41;72.03;100899.31;5051565;28;20090;-42
2023/07/03 08:32:09;;;;;;;28.40;5.88;;;;;;;17.20;69.51;100918.38;5052589;28;20049;-42
2023/07/03 08:34:35;;;;;;;27.60;6.32;;;;;;;17.32;71.41;100922.75;5051506;28;20087;-47
2023/07/03 08:37:00;;;;;;;31.35;7.25;;;;;;;17.27;70.28;100916.66;5052379;28;20060;-47
2023/07/03 08:39:25;;;;;;;33.45;6.28;;;;;;;17.27;70.12;100927.06;5051995;28;20040;-47
2023/07/03 08:42:00;;;;;;;21.25;5.60;;;;;;;17.17;70.17;100933.09;5051917;28;20029;-46
2023/07/03 08:44:25;;;;;;;27.75;6.13;;;;;;;17.13;70.98;100929.63;5051711;28;20035;-47
2023/07/03 08:46:52;;;;;;;26.85;6.43;;;;;;;17.17;71.35;100938.31;5052252;28;20017;-42
2023/07/03 08:49:23;;;;;;;28.98;6.38;;;;;;;17.16;70.66;100933.97;5051626;28;20057;-43
2023/07/03 08:51:51;;;;;;;29.08;6.40;;;;;;;17.13;68.68;100936.56;5052026;28;20017;-46
2023/07/03 08:54:23;;;;;;;21.73;5.63;;;;;;;17.06;68.41;100943.50;5052406;28;20369;-47
2023/07/03 08:56:48;;;;;;;25.05;6.32;;;;;;;17.17;69.55;100930.50;5051818;28;20024;-47
2023/07/03 08:59:14;;;;;;;21.60;5.93;;;;;;;17.43;68.04;100938.44;5052089;28;20029;-48
2023/07/03 09:01:41;;;;;;;27.17;5.22;;;;;;;17.63;67.65;100933.22;5054525;28;20103;-49
2023/07/03 09:04:14;;;;;;;23.20;5.50;;;;;;;17.93;65.90;100939.38;5055258;28;20444;-47
2023/07/03 09:07:00;;;;;;;29.08;6.47;;;;;;;17.98;63.29;100942.00;5055545;28;20036;-46
2023/07/03 09:09:28;;;;;;;26.40;5.55;;;;;;;17.79;63.06;100939.34;5055492;28;20090;-45
2023/07/03 09:12:34;;;;;;;26.52;6.78;;;;;;;17.70;64.92;100942.81;5054951;28;20461;-43
2023/07/03 09:15:09;;;;;;;28.15;6.50;;;;;;;17.38;66.37;100930.59;5055923;28;20092;-48
2023/07/03 09:17:37;;;;;;;27.30;6.78;;;;;;;17.18;67.59;100937.47;5054842;28;20029;-47
2023/07/03 09:20:22;;;;;;;32.53;6.28;;;;;;;16.99;67.21;100945.22;5055390;28;20017;-42
2023/07/03 09:22:59;;;;;;;30.90;6.45;;;;;;;17.04;68.77;100942.59;5055159;28;20183;-43
2023/07/03 09:25:38;;;;;;;25.70;6.78;;;;;;;17.11;67.98;100947.00;5054703;28;20029;-46
2023/07/03 09:28:05;;;;;;;35.78;7.68;;;;;;;17.08;67.05;100946.97;5055507;28;20036;-42
2023/07/03 09:30:30;;;;;;;30.60;6.77;;;;;;;17.24;67.94;100943.56;5055076;28;20029;-43
2023/07/03 09:32:56;;;;;;;29.88;6.75;;;;;;;17.44;67.73;100940.13;5054538;28;20631;-46
2023/07/03 09:35:22;;;;;;;27.58;7.00;;;;;;;17.65;66.81;100941.06;5055573;28;20048;-47
2023/07/03 09:37:51;;;;;;;26.58;6.40;;;;;;;17.61;66.88;100943.66;5054984;28;20483;-43
2023/07/03 09:40:34;;;;;;;26.77;7.38;;;;;;;17.61;68.17;100937.56;5055347;28;20032;-45
2023/07/03 09:43:00;;;;;;;29.17;7.97;;;;;;;17.40;67.44;100941.00;5055316;28;20063;-48
2023/07/03 09:45:33;;;;;;;36.95;7.95;;;;;;;17.21;69.00;100947.88;5054466;28;20032;-43
2023/07/03 09:48:01;;;;;;;27.67;7.80;;;;;;;17.10;73.61;100951.31;5055157;28;20032;-48
2023/07/03 09:50:30;;;;;;;31.98;8.65;;;;;;;17.14;73.60;100943.53;5054926;28;20056;-49
2023/07/03 09:52:57;;;;;;;32.25;8.40;;;;;;;17.21;73.97;100947.88;5054412;28;20531;-43
2023/07/03 09:55:23;;;;;;;34.33;8.73;;;;;;;17.40;72.95;100939.28;5054805;28;20028;-46
2023/07/03 09:57:48;;;;;;;32.92;8.52;;;;;;;17.55;71.10;100951.47;5054970;28;20028;-47
2023/07/03 10:00:20;;;;;;;29.38;7.78;;;;;;;17.76;68.21;100952.38;5054186;28;20021;-48
2023/07/03 10:02:51;;;;;;;31.02;8.40;;;;;;;17.90;69.78;100948.03;5054462;28;20029;-43
2023/07/03 10:05:21;;;;;;;31.83;9.70;;;;;;;18.41;65.11;100953.28;5054818;28;20028;-49
2023/07/03 10:07:48;;;;;;;31.02;8.63;;;;;;;19.04;61.01;100954.94;5053598;28;20378;-44
2023/07/03 10:10:19;;;;;;;35.20;9.70;;;;;;;19.44;58.82;100951.22;5054657;28;20021;-44
2023/07/03 10:12:50;;;;;;;28.50;7.78;;;;;;;19.31;57.18;100945.19;5053030;28;20021;-44
2023/07/03 10:15:26;;;;;;;31.13;9.15;;;;;;;19.11;57.44;100952.25;5054136;28;20025;-42
2023/07/03 10:17:59;;;;;;;28.10;8.00;;;;;;;18.99;61.26;100956.69;5054751;28;20025;-44
2023/07/03 10:20:32;;;;;;;22.40;8.05;;;;;;;19.15;63.26;100957.47;5053852;28;20036;-45
2023/07/03 10:23:02;;;;;;;28.90;8.63;;;;;;;18.90;61.21;100956.69;5053938;28;20114;-42
2023/07/03 10:25:31;;;;;;;24.60;8.82;;;;;;;18.67;60.85;100960.22;5054092;28;20538;-47
2023/07/03 10:28:00;;;;;;;31.60;8.43;;;;;;;18.40;58.36;100966.34;5054019;28;20033;-43
2023/07/03 10:30:31;;;;;;;26.08;8.32;;;;;;;18.35;60.89;100961.13;5053853;28;20029;-48
2023/07/03 10:33:00;;;;;;;40.58;10.13;;;;;;;18.23;57.22;100954.19;5054482;28;20033;-47
2023/07/03 10:35:29;;;;;;;27.25;8.02;;;;;;;18.45;55.37;100954.16;5053306;28;20033;-45
2023/07/03 10:38:23;;;;;;;30.23;7.65;;;;;;;19.28;52.90;100955.69;5053709;28;20138;-49
2023/07/03 10:40:57;;;;;;;25.50;7.78;;;;;;;20.57;48.76;100955.63;5054097;28;20028;-43
2023/07/03 10:43:27;;;;;;;30.02;6.97;;;;;;;20.98;48.51;100951.72;5053001;28;20576;-43
2023/07/03 10:45:54;;;;;;;26.65;7.18;;;;;;;21.05;47.95;100952.50;5054013;28;20056;-48
2023/07/03 10:48:24;;;;;;;32.65;6.90;;;;;;;20.56;48.03;100952.13;5053293;28;20093;-46
2023/07/03 10:50:57;;;;;;;27.08;6.70;;;;;;;19.94;48.10;100949.22;5054089;28;20028;-48
2023/07/03 10:53:40;;;;;;;29.15;6.68;;;;;;;19.69;51.43;100957.19;5053950;28;20020;-43
2023/07/03 10:56:11;;;;;;;28.63;6.07;;;;;;;19.25;49.62;100966.16;5053448;28;20442;-48
2023/07/03 10:59:01;;;;;;;21.45;5.60;;;;;;;19.16;50.74;100959.22;5053267;28;20029;-46
2023/07/03 11:01:41;;;;;;;23.50;5.53;;;;;;;19.26;48.56;100965.25;5053487;28;20033;-48
2023/07/03 11:04:20;;;;;;;24.38;5.32;;;;;;;19.65;48.02;100963.34;5053141;28;20096;-43
2023/07/03 11:07:03;;;;;;;26.00;4.70;;;;;;;19.87;48.19;100952.72;5053326;28;20071;-47
2023/07/03 11:09:59;;;;;;;22.55;5.25;;;;;;;20.27;45.41;100949.81;5052880;28;20033;-45
2023/07/03 11:12:44;;;;;;;24.27;4.40;;;;;;;21.69;42.22;100961.28;5053006;28;20029;-45
2023/07/03 11:15:12;;;;;;;18.67;4.65;;;;;;;22.83;38.52;100952.38;5053223;28;20489;-43